Time;durP1;ratioP1;P1;durP2;ratioP2;P2;SDS_P1;SDS_P2;PMS_P1;PMS_P2;Temp;Humidity;BMP_temperature;BMP_pressure;BME280_temperature;BME280_humidity;BME280_pressure;Samples;Min_cycle;Max_cycle;Signal;HPM_P1;HPM_P2
2022/10/16 00:02:58;;;;;;;25.42;8.52;;;;;;;;;;6152717;23;20156;-89
2022/10/16 00:06:05;;;;;;;18.45;8.85;;;;;;;;;;6151327;23;20260;-90
2022/10/16 00:09:10;;;;;;;18.98;8.38;;;;;;;;;;6151859;23;20221;-89
2022/10/16 00:12:15;;;;;;;17.55;7.05;;;;;;;;;;6152311;23;20252;-90
2022/10/16 00:15:21;;;;;;;18.75;6.93;;;;;;;;;;6151986;23;20211;-91
2022/10/16 00:18:26;;;;;;;14.35;6.40;;;;;;;;;;6150589;23;20188;-90
2022/10/16 00:21:33;;;;;;;23.45;6.90;;;;;;;;;;6153001;23;20149;-90
2022/10/16 00:24:38;;;;;;;14.77;6.63;;;;;;;;;;6152758;23;20497;-89
2022/10/16 00:27:43;;;;;;;18.70;6.70;;;;;;;;;;6151855;23;20612;-89
2022/10/16 00:30:48;;;;;;;15.93;6.05;;;;;;;;;;6152373;23;20212;-89
2022/10/16 00:33:53;;;;;;;19.10;7.03;;;;;;;;;;6152658;23;20259;-90
2022/10/16 00:37:00;;;;;;;22.92;8.15;;;;;;;;;;6152057;23;20180;-91
2022/10/16 01:30:03;;;;;;;30.35;8.45;;;;;;;;;;6144217;23;20303;-90
2022/10/16 01:33:11;;;;;;;32.17;10.02;;;;;;;;;;6150907;23;20176;-89
2022/10/16 01:36:18;;;;;;;26.70;9.88;;;;;;;;;;6150283;23;20172;-92
2022/10/16 01:39:24;;;;;;;23.67;6.45;;;;;;;;;;6148380;23;20169;-90
2022/10/16 01:42:32;;;;;;;21.08;7.75;;;;;;;;;;6150216;23;20191;-89
2022/10/16 01:45:39;;;;;;;19.95;7.03;;;;;;;;;;6149475;23;20195;-92
2022/10/16 01:48:45;;;;;;;26.80;8.57;;;;;;;;;;6149193;23;20150;-89
2022/10/16 01:51:52;;;;;;;37.90;8.10;;;;;;;;;;6152598;23;20169;-90
2022/10/16 01:54:58;;;;;;;22.00;7.75;;;;;;;;;;6150371;23;20169;-90
2022/10/16 01:58:04;;;;;;;28.83;8.70;;;;;;;;;;6134540;23;20157;-91
2022/10/16 02:01:13;;;;;;;30.83;9.32;;;;;;;;;;6150440;23;20192;-90
2022/10/16 02:04:20;;;;;;;50.95;8.75;;;;;;;;;;6151150;23;20168;-90
2022/10/16 02:07:25;;;;;;;63.22;8.60;;;;;;;;;;6149035;23;20651;-91
2022/10/16 02:10:31;;;;;;;99.28;9.73;;;;;;;;;;6151359;23;20148;-90
2022/10/16 02:13:39;;;;;;;362.88;15.45;;;;;;;;;;6150856;23;20252;-90
2022/10/16 02:16:46;;;;;;;135.00;11.85;;;;;;;;;;6151076;23;20172;-90
2022/10/16 02:19:52;;;;;;;175.45;11.70;;;;;;;;;;6151611;23;20164;-90
2022/10/16 02:22:58;;;;;;;365.58;17.65;;;;;;;;;;6149776;23;20168;-91
2022/10/16 02:26:05;;;;;;;555.85;20.55;;;;;;;;;;6149214;23;20196;-91
2022/10/16 02:29:12;;;;;;;143.98;11.00;;;;;;;;;;6149787;23;20220;-90
2022/10/16 02:32:20;;;;;;;96.47;9.32;;;;;;;;;;6149982;23;20193;-90
2022/10/16 02:35:26;;;;;;;81.38;8.98;;;;;;;;;;6149816;23;20248;-89
2022/10/16 02:38:32;;;;;;;248.52;11.30;;;;;;;;;;6148916;23;20500;-89
2022/10/16 02:41:37;;;;;;;152.50;9.48;;;;;;;;;;6149544;23;20288;-89
2022/10/16 02:44:42;;;;;;;334.88;14.75;;;;;;;;;;6129443;23;20247;-89
2022/10/16 02:47:49;;;;;;;190.80;11.85;;;;;;;;;;6148495;23;20188;-89
2022/10/16 02:50:53;;;;;;;230.27;11.65;;;;;;;;;;6146507;23;20260;-90
2022/10/16 02:53:58;;;;;;;135.80;9.75;;;;;;;;;;6149474;23;20168;-89
2022/10/16 02:57:03;;;;;;;118.95;8.88;;;;;;;;;;6167514;23;20196;-89
2022/10/16 03:00:09;;;;;;;119.72;9.23;;;;;;;;;;6151181;23;20220;-91
2022/10/16 03:03:15;;;;;;;129.05;9.35;;;;;;;;;;6167742;23;20163;-88
2022/10/16 03:06:20;;;;;;;89.45;9.27;;;;;;;;;;6151489;23;20200;-91
2022/10/16 03:09:26;;;;;;;123.95;10.00;;;;;;;;;;6153261;23;20157;-92
2022/10/16 03:12:31;;;;;;;58.17;9.48;;;;;;;;;;6167640;23;20691;-90
2022/10/16 03:15:36;;;;;;;138.13;10.63;;;;;;;;;;6153088;23;20176;-91
2022/10/16 03:18:42;;;;;;;58.28;8.63;;;;;;;;;;6151351;23;20176;-90
2022/10/16 03:21:47;;;;;;;78.97;9.40;;;;;;;;;;6150568;23;20165;-90
2022/10/16 03:24:53;;;;;;;20.55;6.25;;;;;;;;;;6151959;23;20173;-90
2022/10/16 03:27:57;;;;;;;60.92;9.70;;;;;;;;;;6151768;23;20216;-90
2022/10/16 03:31:03;;;;;;;68.72;9.27;;;;;;;;;;6170952;23;20192;-91
2022/10/16 03:34:09;;;;;;;39.92;8.50;;;;;;;;;;6167513;23;20165;-89
2022/10/16 03:37:15;;;;;;;36.13;7.32;;;;;;;;;;6169723;23;20228;-90
2022/10/16 03:40:20;;;;;;;38.67;7.60;;;;;;;;;;6171337;23;20165;-90
2022/10/16 03:43:25;;;;;;;53.33;7.90;;;;;;;;;;6173182;23;20249;-90
2022/10/16 03:46:30;;;;;;;27.38;6.40;;;;;;;;;;6172805;23;20196;-90
2022/10/16 03:49:38;;;;;;;61.53;7.65;;;;;;;;;;6174878;23;20168;-89
2022/10/16 03:56:10;;;;;;;42.17;8.23;;;;;;;;;;6173091;23;20184;-91
2022/10/16 23:21:48;;;;;;;47.90;4.32;;;;;;;;;;6137023;23;20169;-90
2022/10/16 23:24:57;;;;;;;31.63;5.15;;;;;;;;;;6118996;23;20593;-89
2022/10/16 23:28:02;;;;;;;36.03;5.10;;;;;;;;;;6118874;23;20237;-91
2022/10/16 23:31:07;;;;;;;74.45;5.13;;;;;;;;;;6118256;23;20172;-89
2022/10/16 23:34:12;;;;;;;40.85;5.32;;;;;;;;;;6117758;23;20169;-90
2022/10/16 23:37:19;;;;;;;41.85;5.47;;;;;;;;;;6119140;23;20197;-91
2022/10/16 23:40:24;;;;;;;42.83;4.70;;;;;;;;;;6119102;23;20294;-90
2022/10/16 23:43:30;;;;;;;85.95;5.72;;;;;;;;;;6118662;23;20169;-90
2022/10/16 23:46:35;;;;;;;52.38;4.25;;;;;;;;;;6119239;23;20205;-90
2022/10/16 23:49:41;;;;;;;57.95;5.07;;;;;;;;;;6120287;23;20170;-89
2022/10/16 23:52:47;;;;;;;24.15;5.07;;;;;;;;;;6122356;23;20169;-89
2022/10/16 23:55:52;;;;;;;52.95;5.28;;;;;;;;;;6122409;23;20169;-90
2022/10/16 23:58:57;;;;;;;56.35;5.30;;;;;;;;;;6121221;23;20164;-89
